Time;durP1;ratioP1;P1;durP2;ratioP2;P2;SDS_P1;SDS_P2;PMS_P1;PMS_P2;Temp;Humidity;BMP_temperature;BMP_pressure;BME280_temperature;BME280_humidity;BME280_pressure;Samples;Min_cycle;Max_cycle;Signal;HPM_P1;HPM_P2
2022/03/21 00:00:47;;;;;;;6.43;5.90;;;7.70;86.80;;;;;;5023852;28;20575;-81
2022/03/21 00:03:17;;;;;;;7.68;6.97;;;7.70;86.90;;;;;;5015521;28;20228;-80
2022/03/21 00:05:46;;;;;;;7.10;6.50;;;7.60;86.70;;;;;;5016488;28;20246;-77
2022/03/21 00:08:13;;;;;;;7.55;6.85;;;7.60;86.80;;;;;;5010162;28;20224;-74
2022/03/21 00:10:41;;;;;;;6.85;6.25;;;7.50;87.30;;;;;;5017130;28;20713;-77
2022/03/21 00:13:09;;;;;;;7.03;6.43;;;7.50;87.60;;;;;;5011811;28;20220;-75
2022/03/21 00:15:36;;;;;;;7.43;6.72;;;7.50;88.00;;;;;;5009909;28;20191;-76
2022/03/21 00:18:05;;;;;;;7.03;6.40;;;7.40;87.80;;;;;;5015815;28;20277;-74
2022/03/21 00:20:34;;;;;;;6.78;6.07;;;7.30;87.50;;;;;;5011865;28;20228;-76
2022/03/21 00:23:02;;;;;;;7.03;6.43;;;7.30;88.00;;;;;;5015113;28;20223;-75
2022/03/21 00:25:30;;;;;;;6.72;6.07;;;7.20;88.10;;;;;;5013615;28;20204;-74
2022/03/21 00:27:58;;;;;;;7.18;6.60;;;7.10;88.00;;;;;;5017529;28;20247;-75
2022/03/21 00:30:26;;;;;;;7.47;6.63;;;7.10;88.00;;;;;;5012960;28;20686;-74
2022/03/21 00:32:53;;;;;;;7.80;7.10;;;7.00;88.20;;;;;;5016622;28;20227;-75
2022/03/21 00:35:21;;;;;;;7.30;6.60;;;7.00;88.40;;;;;;5003359;28;20230;-75
2022/03/21 00:37:50;;;;;;;7.47;6.78;;;7.00;88.90;;;;;;5004074;28;20232;-75
2022/03/21 00:40:18;;;;;;;7.47;6.78;;;7.00;89.10;;;;;;5007938;28;20224;-74
2022/03/21 00:42:47;;;;;;;8.52;7.65;;;7.00;89.50;;;;;;5006319;28;20207;-73
2022/03/21 00:45:16;;;;;;;7.78;6.97;;;6.90;89.50;;;;;;5006658;28;20289;-77
2022/03/21 00:47:43;;;;;;;7.35;6.68;;;6.80;89.50;;;;;;5004659;28;20655;-74
2022/03/21 00:50:13;;;;;;;7.57;6.88;;;6.70;89.70;;;;;;5007139;28;20644;-75
2022/03/21 00:52:41;;;;;;;7.88;7.18;;;6.70;89.90;;;;;;5006488;28;20746;-77
2022/03/21 00:55:11;;;;;;;7.28;6.63;;;6.70;90.00;;;;;;5003644;28;20204;-80
2022/03/21 00:57:40;;;;;;;6.85;6.13;;;6.60;90.00;;;;;;5012390;28;20246;-77
2022/03/21 01:00:10;;;;;;;7.25;6.50;;;6.60;90.10;;;;;;5003223;28;20764;-73
2022/03/21 01:02:37;;;;;;;7.97;7.18;;;6.60;90.30;;;;;;5005890;28;20207;-74
2022/03/21 01:05:04;;;;;;;8.18;7.38;;;6.50;90.30;;;;;;5010118;28;20258;-78
2022/03/21 01:07:31;;;;;;;6.75;6.05;;;6.50;90.30;;;;;;5005498;28;20469;-74
2022/03/21 01:09:58;;;;;;;8.48;7.63;;;6.50;90.40;;;;;;5012717;28;20223;-75
2022/03/21 01:12:27;;;;;;;7.35;6.65;;;6.50;90.00;;;;;;5005974;28;20262;-75
2022/03/21 01:14:54;;;;;;;7.97;7.18;;;6.50;90.10;;;;;;5006848;28;20227;-78
2022/03/21 01:17:21;;;;;;;7.50;6.80;;;6.50;90.10;;;;;;5004680;28;20208;-75
2022/03/21 01:19:49;;;;;;;7.57;6.78;;;6.40;90.20;;;;;;5007121;28;20767;-76
2022/03/21 01:22:16;;;;;;;7.50;6.75;;;6.40;90.40;;;;;;5001165;28;20246;-75
2022/03/21 01:24:43;;;;;;;8.20;7.38;;;6.30;90.50;;;;;;5005874;28;20495;-81
2022/03/21 01:27:10;;;;;;;7.40;6.70;;;6.20;90.50;;;;;;5010829;28;20637;-78
2022/03/21 01:29:39;;;;;;;8.30;7.38;;;6.20;90.80;;;;;;5015651;28;20223;-77
2022/03/21 01:32:07;;;;;;;9.00;7.40;;;6.20;90.80;;;;;;5008768;28;20774;-77
2022/03/21 01:34:33;;;;;;;7.38;6.68;;;6.20;90.80;;;;;;5015202;28;20219;-74
2022/03/21 01:37:01;;;;;;;7.18;6.50;;;6.20;90.90;;;;;;5014032;28;20613;-77
2022/03/21 01:39:28;;;;;;;8.32;7.53;;;6.10;91.20;;;;;;5013460;28;20620;-74
2022/03/21 01:41:55;;;;;;;7.93;7.22;;;6.10;90.70;;;;;;5012709;28;20234;-76
2022/03/21 01:44:22;;;;;;;7.80;7.00;;;6.20;90.60;;;;;;5012862;28;20243;-79
2022/03/21 01:46:50;;;;;;;7.03;6.38;;;6.20;90.60;;;;;;5015747;28;20242;-76
2022/03/21 01:49:18;;;;;;;8.23;6.95;;;6.20;90.70;;;;;;5018644;28;20310;-75
2022/03/21 01:51:46;;;;;;;7.78;7.03;;;6.20;90.80;;;;;;5006871;28;20220;-76
2022/03/21 01:56:58;;;;;;;7.90;7.20;;;6.10;91.00;;;;;;5010029;28;20560;-77
2022/03/21 01:59:26;;;;;;;7.82;6.97;;;6.00;91.00;;;;;;5001427;28;20571;-79
2022/03/21 02:01:55;;;;;;;7.55;6.85;;;6.00;91.20;;;;;;5008702;28;20287;-74
2022/03/21 02:04:22;;;;;;;8.77;7.88;;;5.90;91.20;;;;;;5001805;28;20642;-76
2022/03/21 02:06:50;;;;;;;9.90;8.82;;;5.90;91.10;;;;;;5009505;28;20281;-75
2022/03/21 02:09:17;;;;;;;7.90;7.10;;;5.90;91.00;;;;;;5004549;28;20247;-80
2022/03/21 02:11:44;;;;;;;7.43;6.80;;;5.90;90.80;;;;;;5004541;28;20212;-81
2022/03/21 02:14:11;;;;;;;8.40;7.43;;;6.00;90.90;;;;;;5012450;28;20275;-76
2022/03/21 02:16:40;;;;;;;8.05;7.25;;;6.00;91.50;;;;;;5003670;28;20200;-78
2022/03/21 02:19:22;;;;;;;8.77;7.60;;;5.90;91.30;;;;;;5010327;28;20239;-77
2022/03/21 02:21:59;;;;;;;7.85;7.05;;;5.90;91.60;;;;;;5008821;28;20259;-75
2022/03/21 02:24:35;;;;;;;7.65;6.95;;;5.90;91.60;;;;;;5006802;28;20277;-77
2022/03/21 02:27:04;;;;;;;7.40;6.70;;;5.90;91.50;;;;;;5009946;28;20417;-78
2022/03/21 02:29:31;;;;;;;7.28;6.63;;;5.80;91.40;;;;;;5007886;28;20543;-76
2022/03/21 02:31:58;;;;;;;7.85;7.15;;;5.80;91.50;;;;;;5010560;28;20216;-79
2022/03/21 02:34:27;;;;;;;8.85;7.95;;;5.80;91.70;;;;;;5011116;28;20232;-78
2022/03/21 02:36:58;;;;;;;8.00;7.15;;;5.80;91.90;;;;;;5015417;28;20192;-76
2022/03/21 02:39:27;;;;;;;8.50;7.70;;;5.80;91.50;;;;;;5019346;28;20216;-78
2022/03/21 02:41:54;;;;;;;8.82;7.68;;;5.80;91.70;;;;;;5012882;28;20216;-75
2022/03/21 02:44:22;;;;;;;8.23;7.43;;;5.70;91.70;;;;;;5006285;28;20282;-81
2022/03/21 02:46:50;;;;;;;8.10;7.32;;;5.70;91.60;;;;;;5007931;28;20251;-79
2022/03/21 02:49:17;;;;;;;7.85;7.05;;;5.70;91.70;;;;;;5015257;28;20216;-74
2022/03/21 02:51:45;;;;;;;7.75;7.05;;;5.70;91.80;;;;;;5010013;28;20212;-78
2022/03/21 02:54:13;;;;;;;7.72;7.05;;;5.60;91.80;;;;;;5018433;28;20219;-79
2022/03/21 02:56:40;;;;;;;8.57;6.88;;;5.60;91.90;;;;;;5017060;28;20647;-79
2022/03/21 02:59:07;;;;;;;7.32;6.63;;;5.50;92.00;;;;;;5010300;28;20219;-76
2022/03/21 03:01:36;;;;;;;8.23;6.60;;;5.50;92.00;;;;;;5011561;28;20229;-76
2022/03/21 03:04:03;;;;;;;7.32;6.65;;;5.40;92.00;;;;;;5012432;28;20225;-78
2022/03/21 03:06:30;;;;;;;7.68;6.88;;;5.40;92.10;;;;;;5011337;28;20263;-74
2022/03/21 03:08:57;;;;;;;6.88;6.28;;;5.40;92.30;;;;;;5009140;28;20223;-74
2022/03/21 03:11:24;;;;;;;7.97;7.18;;;5.30;92.40;;;;;;5011495;28;20217;-76
2022/03/21 03:13:51;;;;;;;8.07;7.28;;;5.30;92.60;;;;;;5022666;28;20290;-77
2022/03/21 03:16:19;;;;;;;7.72;7.03;;;5.20;92.70;;;;;;5017144;28;20209;-74
2022/03/21 03:18:47;;;;;;;7.68;6.88;;;5.20;92.70;;;;;;5006934;28;20278;-75
2022/03/21 03:21:19;;;;;;;7.22;6.63;;;5.20;92.70;;;;;;5012854;28;20757;-77
2022/03/21 03:23:49;;;;;;;8.23;7.43;;;5.10;92.90;;;;;;5011068;28;20270;-74
2022/03/21 03:26:16;;;;;;;8.20;7.30;;;5.10;93.00;;;;;;5005154;28;20621;-79
2022/03/21 03:28:44;;;;;;;8.40;7.60;;;5.10;93.00;;;;;;5016496;28;20539;-73
2022/03/21 03:31:11;;;;;;;8.55;7.75;;;5.00;93.00;;;;;;5013017;28;20259;-80
2022/03/21 03:33:39;;;;;;;9.27;8.35;;;5.00;93.10;;;;;;5007297;28;20295;-77
2022/03/21 03:36:08;;;;;;;8.73;7.88;;;4.90;93.20;;;;;;5013847;28;20211;-76
2022/03/21 03:38:35;;;;;;;8.40;7.60;;;4.90;93.50;;;;;;5013921;28;20281;-74
2022/03/21 03:41:02;;;;;;;7.93;7.13;;;4.90;93.50;;;;;;5009787;28;20282;-75
2022/03/21 03:43:29;;;;;;;9.02;8.13;;;4.90;93.40;;;;;;5010706;28;20792;-75
2022/03/21 03:45:57;;;;;;;9.00;7.70;;;5.00;93.30;;;;;;5012775;28;20348;-73
2022/03/21 03:48:25;;;;;;;8.05;7.25;;;5.00;93.30;;;;;;5012065;28;20239;-76
2022/03/21 03:50:52;;;;;;;9.23;8.13;;;5.00;93.30;;;;;;5007952;28;20282;-75
2022/03/21 03:53:21;;;;;;;9.02;8.13;;;4.90;93.30;;;;;;5015567;28;20251;-75
2022/03/21 03:55:48;;;;;;;9.00;8.10;;;4.80;93.40;;;;;;5007688;28;20243;-74
2022/03/21 03:58:16;;;;;;;8.18;7.28;;;4.80;93.50;;;;;;5007807;28;20216;-76
2022/03/21 04:00:44;;;;;;;8.20;7.20;;;4.80;93.60;;;;;;5015643;28;20277;-74
2022/03/21 04:05:56;;;;;;;8.10;7.32;;;4.70;93.80;;;;;;5007226;28;20214;-74
2022/03/21 04:08:25;;;;;;;8.88;8.07;;;4.70;94.00;;;;;;5007841;28;20208;-74
2022/03/21 04:10:52;;;;;;;8.55;7.75;;;4.70;94.10;;;;;;5006104;28;20659;-74
2022/03/21 04:13:19;;;;;;;8.73;7.90;;;4.70;94.10;;;;;;5011976;28;20200;-74
2022/03/21 04:15:46;;;;;;;8.73;7.97;;;4.70;94.10;;;;;;5004912;28;20197;-77
2022/03/21 04:18:13;;;;;;;8.73;7.82;;;4.70;94.20;;;;;;5013911;28;20223;-76
2022/03/21 04:20:41;;;;;;;8.65;7.75;;;4.70;94.40;;;;;;5012396;28;20212;-78
2022/03/21 04:23:09;;;;;;;8.48;7.68;;;4.70;94.40;;;;;;5013143;28;20199;-74
2022/03/21 04:25:38;;;;;;;8.80;8.00;;;4.60;94.50;;;;;;5011680;28;20236;-79
2022/03/21 04:28:09;;;;;;;9.10;8.20;;;4.60;94.40;;;;;;5018219;28;20259;-74
2022/03/21 04:30:37;;;;;;;9.60;8.60;;;4.60;94.40;;;;;;5011983;28;20232;-75
2022/03/21 04:33:04;;;;;;;8.80;7.90;;;4.50;94.40;;;;;;5010741;28;20286;-75
2022/03/21 04:35:32;;;;;;;10.63;9.13;;;4.50;94.50;;;;;;5006854;28;20271;-74
2022/03/21 04:37:59;;;;;;;9.82;8.82;;;4.50;94.50;;;;;;5007916;28;20694;-75
2022/03/21 04:40:26;;;;;;;9.68;8.77;;;4.50;94.50;;;;;;5007346;28;20258;-78
2022/03/21 04:42:55;;;;;;;8.85;7.95;;;4.50;94.60;;;;;;5008132;28;20551;-76
2022/03/21 04:45:22;;;;;;;9.10;8.27;;;4.50;94.60;;;;;;5007432;28;20212;-76
2022/03/21 04:47:49;;;;;;;9.40;8.43;;;4.50;95.20;;;;;;5009109;28;20208;-79
2022/03/21 04:50:16;;;;;;;9.50;8.52;;;4.40;94.80;;;;;;5008227;28;20224;-79
2022/03/21 04:52:43;;;;;;;8.73;7.85;;;4.40;94.80;;;;;;5011499;28;20246;-75
2022/03/21 04:55:10;;;;;;;9.32;8.52;;;4.40;94.90;;;;;;5006673;28;20232;-76
2022/03/21 04:57:37;;;;;;;9.18;8.20;;;4.30;94.90;;;;;;5012475;28;20674;-76
2022/03/21 05:00:07;;;;;;;9.18;8.30;;;4.30;95.00;;;;;;5020465;28;20648;-77
2022/03/21 05:02:34;;;;;;;8.68;7.80;;;4.30;95.00;;;;;;5001561;28;20305;-75
2022/03/21 05:05:02;;;;;;;8.45;7.65;;;4.30;95.00;;;;;;5010216;28;20247;-73
2022/03/21 05:07:29;;;;;;;8.90;8.02;;;4.30;95.20;;;;;;5005745;28;20659;-74
2022/03/21 05:09:56;;;;;;;8.82;7.93;;;4.30;95.00;;;;;;5006766;28;20216;-73
2022/03/21 05:12:24;;;;;;;8.65;7.53;;;4.30;95.10;;;;;;5008368;28;22102;-74
2022/03/21 05:14:51;;;;;;;8.00;7.07;;;4.30;95.10;;;;;;5006965;28;20227;-75
2022/03/21 05:17:19;;;;;;;8.27;7.50;;;4.30;95.20;;;;;;5011437;28;20200;-76
2022/03/21 05:19:46;;;;;;;7.68;7.00;;;4.30;95.50;;;;;;5006707;28;20282;-75
2022/03/21 05:22:13;;;;;;;9.85;8.85;;;4.30;95.20;;;;;;5012021;28;20283;-74
2022/03/21 05:35:55;;;;;;;12.05;10.73;;;4.30;95.50;;;;;;5011833;28;20590;-76
2022/03/21 05:38:24;;;;;;;11.50;10.30;;;4.30;95.50;;;;;;5012519;28;20202;-75
2022/03/21 05:40:53;;;;;;;13.57;12.27;;;4.30;95.50;;;;;;5004311;28;20413;-74
2022/03/21 05:43:20;;;;;;;13.48;12.13;;;4.40;95.60;;;;;;5005849;28;20200;-74
2022/03/21 05:45:49;;;;;;;12.35;11.15;;;4.40;95.50;;;;;;5006990;28;20223;-74
2022/03/21 05:51:02;;;;;;;9.95;8.95;;;4.40;95.40;;;;;;5013160;28;20281;-74
2022/03/21 05:53:29;;;;;;;9.98;8.98;;;4.50;95.50;;;;;;5082994;23;20708;-80
2022/03/21 05:55:58;;;;;;;9.85;8.85;;;4.50;95.40;;;;;;5048561;28;20221;-79
2022/03/21 05:58:25;;;;;;;8.98;8.07;;;4.50;95.30;;;;;;5055209;28;20195;-78
2022/03/21 06:00:52;;;;;;;9.73;8.75;;;4.50;95.30;;;;;;5054273;28;20215;-78
2022/03/21 06:03:21;;;;;;;9.32;8.52;;;4.50;95.30;;;;;;5048143;28;20730;-78
2022/03/21 06:05:49;;;;;;;11.00;9.00;;;4.60;95.30;;;;;;5037042;28;20234;-78
2022/03/21 06:08:16;;;;;;;8.55;7.65;;;4.60;95.30;;;;;;5026637;28;20205;-78
2022/03/21 06:10:44;;;;;;;9.05;8.25;;;4.70;95.60;;;;;;5035867;28;20238;-76
2022/03/21 06:13:11;;;;;;;10.98;8.18;;;4.70;95.70;;;;;;5034520;28;20245;-78
2022/03/21 06:15:39;;;;;;;9.07;8.27;;;4.80;95.80;;;;;;5042226;28;20673;-77
2022/03/21 06:18:10;;;;;;;8.80;8.00;;;4.90;95.90;;;;;;5039095;28;20198;-78
2022/03/21 06:20:40;;;;;;;9.23;8.32;;;4.90;95.80;;;;;;5031097;28;20239;-79
2022/03/21 06:23:07;;;;;;;9.30;8.25;;;5.00;96.00;;;;;;5027747;28;20306;-77
2022/03/21 06:25:34;;;;;;;8.85;7.95;;;5.10;95.90;;;;;;5018607;28;20405;-77
2022/03/21 06:28:02;;;;;;;9.00;8.10;;;5.20;96.00;;;;;;5018195;28;20197;-78
2022/03/21 06:30:30;;;;;;;8.82;7.93;;;5.40;96.10;;;;;;5014291;28;20226;-77
2022/03/21 06:32:57;;;;;;;9.45;8.52;;;5.50;96.30;;;;;;5025601;28;20203;-77
2022/03/21 06:35:24;;;;;;;9.05;8.10;;;5.60;96.20;;;;;;5031842;28;20246;-75
2022/03/21 06:37:52;;;;;;;9.75;8.75;;;5.80;96.10;;;;;;5025977;28;20195;-78
2022/03/21 06:40:20;;;;;;;9.63;8.63;;;6.00;95.80;;;;;;5016031;28;20220;-76
2022/03/21 06:42:47;;;;;;;11.00;9.43;;;6.20;95.80;;;;;;5021203;28;20270;-76
2022/03/21 06:45:15;;;;;;;10.20;9.20;;;6.40;95.50;;;;;;5027165;28;20234;-78
2022/03/21 06:47:42;;;;;;;9.52;8.63;;;6.60;95.40;;;;;;5035694;28;20199;-79
2022/03/21 06:50:10;;;;;;;10.43;9.32;;;6.80;95.10;;;;;;5022773;28;20215;-79
2022/03/21 06:52:39;;;;;;;10.07;8.90;;;7.00;95.00;;;;;;5025846;28;20330;-77
2022/03/21 06:55:10;;;;;;;11.00;9.88;;;7.10;95.00;;;;;;5024520;28;20227;-77
2022/03/21 06:57:37;;;;;;;11.40;10.05;;;7.20;95.10;;;;;;5012587;28;20196;-78
2022/03/21 07:00:05;;;;;;;12.80;10.45;;;7.30;95.00;;;;;;5030196;28;20861;-78
2022/03/21 07:02:32;;;;;;;12.20;11.00;;;7.40;95.20;;;;;;5022970;28;20255;-76
2022/03/21 07:04:59;;;;;;;13.10;11.70;;;7.40;95.30;;;;;;5029819;28;20216;-78
2022/03/21 07:07:27;;;;;;;13.48;12.13;;;7.50;95.40;;;;;;5023204;28;20497;-77
2022/03/21 07:09:54;;;;;;;13.05;11.65;;;7.50;94.90;;;;;;5013679;28;20220;-76
2022/03/21 07:12:24;;;;;;;12.60;11.30;;;7.50;95.10;;;;;;5021714;28;20195;-78
2022/03/21 07:14:51;;;;;;;12.00;10.43;;;7.50;95.00;;;;;;5021484;28;20223;-77
2022/03/21 07:17:21;;;;;;;12.13;10.10;;;7.60;94.60;;;;;;5025383;28;20264;-77
2022/03/21 07:19:48;;;;;;;12.32;11.02;;;7.50;94.80;;;;;;5013498;28;20882;-77
2022/03/21 07:22:16;;;;;;;11.82;10.57;;;7.60;94.80;;;;;;5016909;28;20234;-78
2022/03/21 07:24:44;;;;;;;11.18;10.07;;;7.60;95.00;;;;;;5028275;28;20272;-77
2022/03/21 07:27:12;;;;;;;11.38;10.27;;;7.60;95.00;;;;;;5024472;28;20600;-78
2022/03/21 07:29:40;;;;;;;9.65;8.75;;;7.70;94.80;;;;;;5026598;28;20622;-76
2022/03/21 07:32:08;;;;;;;11.73;9.73;;;7.80;94.60;;;;;;5016542;28;20200;-77
2022/03/21 07:34:35;;;;;;;11.40;10.18;;;7.80;94.10;;;;;;5028449;28;20325;-78
2022/03/21 07:37:02;;;;;;;10.98;9.93;;;7.90;94.70;;;;;;5029610;28;20250;-77
2022/03/21 07:39:29;;;;;;;10.52;9.07;;;7.90;94.20;;;;;;5021542;28;20216;-78
2022/03/21 07:42:00;;;;;;;10.52;9.40;;;8.00;94.00;;;;;;5016316;28;20213;-78
2022/03/21 07:47:21;;;;;;;11.45;10.07;;;8.20;93.40;;;;;;5020296;28;20233;-77
2022/03/21 07:49:49;;;;;;;10.20;9.20;;;8.30;93.10;;;;;;5018964;28;20301;-77
2022/03/21 07:52:18;;;;;;;11.23;10.05;;;8.40;93.40;;;;;;5019773;28;20432;-78
2022/03/21 07:54:46;;;;;;;10.82;9.77;;;8.50;93.70;;;;;;5028764;28;20496;-78
2022/03/21 07:57:13;;;;;;;11.05;9.63;;;8.50;93.60;;;;;;5025371;28;20659;-77
2022/03/21 07:59:40;;;;;;;11.88;9.95;;;8.70;93.80;;;;;;5021627;28;20669;-76
2022/03/21 08:02:08;;;;;;;11.27;10.15;;;8.80;93.70;;;;;;5018375;28;20737;-76
2022/03/21 08:04:37;;;;;;;11.13;9.98;;;9.00;93.10;;;;;;5028477;28;20219;-77
2022/03/21 08:07:04;;;;;;;11.77;10.05;;;9.20;92.70;;;;;;5027767;28;20199;-78
2022/03/21 08:09:31;;;;;;;11.05;9.85;;;9.30;92.90;;;;;;5029429;28;20285;-78
2022/03/21 08:12:00;;;;;;;11.88;10.68;;;9.40;92.40;;;;;;5027098;28;20187;-77
2022/03/21 08:14:27;;;;;;;12.27;10.55;;;9.50;92.50;;;;;;5022077;28;20247;-80
2022/03/21 08:16:54;;;;;;;10.95;9.85;;;9.70;92.60;;;;;;5028984;28;20196;-78
2022/03/21 08:19:24;;;;;;;11.43;10.32;;;9.90;92.50;;;;;;5020549;28;20666;-78
2022/03/21 08:21:52;;;;;;;13.18;10.43;;;10.20;91.90;;;;;;5029277;28;20196;-79
2022/03/21 08:24:20;;;;;;;11.68;10.20;;;10.40;91.70;;;;;;5028350;28;20224;-77
2022/03/21 08:26:47;;;;;;;13.27;10.88;;;10.60;91.80;;;;;;5023994;28;20240;-77
2022/03/21 08:29:15;;;;;;;12.25;10.95;;;11.00;91.60;;;;;;5020783;28;20681;-77
2022/03/21 08:31:42;;;;;;;11.35;10.13;;;11.20;91.10;;;;;;5024107;28;20208;-78
2022/03/21 08:34:10;;;;;;;11.50;10.38;;;11.40;90.50;;;;;;5022532;28;20273;-81
2022/03/21 08:36:37;;;;;;;11.18;10.00;;;11.50;90.70;;;;;;5023364;28;20268;-78
2022/03/21 08:39:05;;;;;;;11.75;10.55;;;11.70;90.40;;;;;;5029986;28;20194;-78
2022/03/21 08:41:32;;;;;;;12.00;10.80;;;12.00;90.10;;;;;;5018039;28;20235;-77
2022/03/21 08:44:00;;;;;;;10.90;9.85;;;12.10;90.10;;;;;;5027282;28;20269;-77
2022/03/21 08:46:27;;;;;;;11.55;10.38;;;12.30;88.80;;;;;;5027797;28;20558;-77
2022/03/21 08:51:39;;;;;;;11.93;10.70;;;12.40;88.00;;;;;;5022198;28;20647;-78
2022/03/21 08:54:08;;;;;;;12.00;10.65;;;12.50;88.80;;;;;;5023187;28;20294;-79
2022/03/21 08:56:35;;;;;;;11.32;10.23;;;12.60;88.20;;;;;;5027076;28;20625;-77
2022/03/21 08:59:02;;;;;;;12.10;9.93;;;12.80;88.50;;;;;;5024844;28;20207;-77
2022/03/21 09:01:30;;;;;;;14.02;10.98;;;12.90;88.10;;;;;;5015532;28;20216;-78
2022/03/21 09:03:59;;;;;;;10.90;9.80;;;12.70;87.30;;;;;;5020372;28;20311;-77
2022/03/21 09:06:26;;;;;;;11.35;10.25;;;12.50;88.50;;;;;;5023719;28;20613;-78
2022/03/21 09:08:53;;;;;;;14.13;10.82;;;12.50;87.20;;;;;;5024347;28;20195;-78
2022/03/21 09:11:21;;;;;;;10.68;9.65;;;12.40;88.00;;;;;;5023683;28;20776;-77
2022/03/21 09:13:49;;;;;;;12.18;10.27;;;12.30;87.60;;;;;;5028064;28;20268;-77
2022/03/21 09:16:16;;;;;;;12.18;10.93;;;12.20;88.30;;;;;;5031451;28;20539;-79
2022/03/21 09:18:44;;;;;;;11.07;9.85;;;12.20;88.40;;;;;;5024112;28;20206;-77
2022/03/21 09:21:12;;;;;;;15.85;10.65;;;12.30;88.40;;;;;;5030752;28;20265;-79
2022/03/21 09:23:40;;;;;;;13.30;10.30;;;12.20;88.00;;;;;;5023410;28;20616;-78
2022/03/21 09:26:08;;;;;;;11.75;10.30;;;12.10;88.40;;;;;;5027479;28;20223;-79
2022/03/21 09:28:37;;;;;;;12.20;10.35;;;12.30;88.70;;;;;;5018856;28;20196;-79
2022/03/21 09:31:06;;;;;;;11.32;10.23;;;12.60;89.10;;;;;;5037734;28;20274;-75
2022/03/21 09:33:33;;;;;;;11.25;10.05;;;12.90;87.50;;;;;;5020776;28;20220;-76
2022/03/21 09:36:01;;;;;;;12.13;9.73;;;13.00;87.90;;;;;;5028885;28;20212;-78
2022/03/21 09:38:28;;;;;;;11.90;10.70;;;13.10;87.70;;;;;;5026335;28;20242;-76
2022/03/21 09:40:55;;;;;;;11.50;10.30;;;13.10;87.90;;;;;;5017267;28;20219;-75
2022/03/21 09:43:24;;;;;;;13.27;10.48;;;13.10;86.30;;;;;;5013595;28;20223;-76
2022/03/21 09:45:56;;;;;;;10.70;9.60;;;13.10;87.30;;;;;;5024218;28;20237;-77
2022/03/21 09:48:26;;;;;;;13.05;11.32;;;13.40;87.70;;;;;;5020775;28;20204;-75
2022/03/21 09:50:56;;;;;;;12.05;10.85;;;13.60;86.50;;;;;;5018692;28;20372;-77
2022/03/21 09:53:24;;;;;;;16.50;11.50;;;13.60;85.90;;;;;;5022779;28;20211;-75
2022/03/21 09:55:52;;;;;;;12.93;11.23;;;13.50;86.40;;;;;;5022838;28;20231;-78
2022/03/21 09:58:20;;;;;;;11.82;10.63;;;13.60;86.90;;;;;;5010895;28;20287;-77
2022/03/21 10:00:48;;;;;;;14.02;11.63;;;13.60;86.10;;;;;;5021832;28;20233;-78
2022/03/21 10:03:17;;;;;;;12.40;11.10;;;13.70;85.60;;;;;;5022916;28;20227;-77
2022/03/21 10:05:49;;;;;;;12.95;11.60;;;13.60;85.20;;;;;;5024407;28;20219;-75
2022/03/21 10:08:21;;;;;;;12.20;10.80;;;13.80;85.70;;;;;;5021947;28;20202;-77
2022/03/21 10:10:58;;;;;;;11.43;10.15;;;14.00;85.10;;;;;;5020377;28;20224;-77
2022/03/21 10:13:28;;;;;;;12.57;11.27;;;14.30;84.50;;;;;;5012279;28;20262;-78
2022/03/21 10:16:12;;;;;;;12.05;10.73;;;14.10;84.60;;;;;;5012200;28;20290;-76
2022/03/21 10:18:57;;;;;;;11.80;10.07;;;14.10;83.50;;;;;;5026381;28;20212;-78
2022/03/21 10:21:25;;;;;;;12.15;10.85;;;14.30;83.60;;;;;;5022316;28;20643;-76
2022/03/21 10:23:59;;;;;;;13.88;11.30;;;14.40;83.00;;;;;;5024892;28;20771;-78
2022/03/21 10:26:28;;;;;;;12.25;10.88;;;14.60;81.80;;;;;;5024475;28;20646;-76
2022/03/21 10:28:58;;;;;;;11.68;10.45;;;14.80;81.80;;;;;;5029468;28;20506;-76
2022/03/21 10:31:35;;;;;;;11.80;10.60;;;14.80;81.00;;;;;;5013438;28;20460;-77
2022/03/21 10:34:06;;;;;;;11.93;10.68;;;15.00;81.80;;;;;;5022027;28;20612;-77
2022/03/21 10:36:33;;;;;;;11.63;10.45;;;15.10;81.20;;;;;;5023377;28;20224;-78
2022/03/21 10:39:14;;;;;;;12.57;10.35;;;14.90;78.70;;;;;;5022189;28;20673;-77
2022/03/21 10:41:42;;;;;;;11.30;10.20;;;14.70;79.10;;;;;;5013778;28;20266;-76
2022/03/21 10:44:10;;;;;;;12.20;10.90;;;14.60;81.20;;;;;;5025944;28;20689;-77
2022/03/21 10:46:37;;;;;;;12.38;11.10;;;14.90;78.50;;;;;;5024061;28;20223;-77
2022/03/21 10:49:10;;;;;;;12.55;11.25;;;15.20;80.30;;;;;;5023111;28;20273;-76
2022/03/21 10:51:51;;;;;;;12.77;11.48;;;15.10;79.40;;;;;;5021211;28;20223;-76
2022/03/21 10:54:41;;;;;;;11.60;10.40;;;15.30;79.00;;;;;;5023591;28;20223;-77
2022/03/21 10:57:25;;;;;;;12.98;11.20;;;15.40;79.60;;;;;;5007003;28;20717;-76
2022/03/21 10:59:53;;;;;;;15.25;12.57;;;15.20;78.40;;;;;;5024792;28;20249;-77
2022/03/21 11:02:20;;;;;;;12.80;11.43;;;15.30;78.20;;;;;;5032762;28;20200;-75
2022/03/21 11:04:50;;;;;;;12.85;11.55;;;15.20;78.00;;;;;;5026159;28;20223;-77
2022/03/21 11:07:17;;;;;;;11.82;10.63;;;15.10;78.40;;;;;;5034352;28;20238;-78
2022/03/21 11:09:44;;;;;;;11.52;10.32;;;15.00;78.50;;;;;;5020391;28;20232;-76
2022/03/21 11:12:11;;;;;;;12.52;11.35;;;15.10;79.90;;;;;;5029623;28;20281;-77
2022/03/21 11:14:42;;;;;;;14.10;11.60;;;15.10;77.90;;;;;;5023218;28;20219;-75
2022/03/21 11:17:09;;;;;;;12.90;10.88;;;15.30;78.10;;;;;;5018848;28;20651;-75
2022/03/21 11:19:36;;;;;;;12.70;11.50;;;15.70;78.60;;;;;;5030774;28;20204;-76
2022/03/21 11:22:05;;;;;;;12.45;11.18;;;15.90;77.70;;;;;;5031412;28;20222;-74
2022/03/21 11:24:34;;;;;;;13.48;11.32;;;15.90;77.10;;;;;;5020878;28;20302;-76
2022/03/21 11:27:20;;;;;;;12.35;11.13;;;16.20;77.00;;;;;;5028591;28;20223;-77
2022/03/21 11:30:03;;;;;;;12.50;11.27;;;16.40;76.80;;;;;;5031984;28;20195;-73
2022/03/21 11:32:43;;;;;;;12.20;10.93;;;16.30;77.10;;;;;;5012577;28;20225;-75
2022/03/21 11:35:13;;;;;;;11.20;10.10;;;16.10;75.90;;;;;;5016245;28;20219;-76
2022/03/21 11:37:42;;;;;;;13.73;11.07;;;15.80;76.30;;;;;;5030210;28;20208;-73
2022/03/21 11:40:29;;;;;;;12.13;10.93;;;15.80;76.40;;;;;;5017374;28;20743;-77
2022/03/21 11:43:18;;;;;;;13.73;12.23;;;16.00;78.20;;;;;;5017678;28;20207;-76
2022/03/21 11:45:46;;;;;;;12.30;11.05;;;16.30;78.60;;;;;;5014989;28;20587;-78
2022/03/21 11:48:33;;;;;;;14.73;11.27;;;16.40;76.60;;;;;;5017138;28;20549;-76
2022/03/21 11:51:23;;;;;;;12.10;10.90;;;16.50;75.70;;;;;;5014212;28;20216;-77
2022/03/21 11:53:53;;;;;;;16.33;12.00;;;16.50;74.20;;;;;;5023406;28;20259;-77
2022/03/21 11:56:54;;;;;;;12.18;10.73;;;16.40;75.90;;;;;;5042810;23;20250;-77
2022/03/21 11:59:51;;;;;;;17.35;13.25;;;16.50;75.00;;;;;;5038620;28;20265;-77
2022/03/21 12:03:01;;;;;;;14.90;13.40;;;16.40;73.80;;;;;;5036225;28;20226;-79
2022/03/21 12:05:56;;;;;;;12.73;11.43;;;16.20;76.40;;;;;;5027871;28;20241;-80
2022/03/21 12:08:48;;;;;;;12.15;10.95;;;16.20;73.90;;;;;;5024701;28;20246;-79
2022/03/21 12:11:49;;;;;;;13.68;12.27;;;16.30;74.90;;;;;;5022318;28;20274;-80
2022/03/21 12:14:29;;;;;;;15.48;11.68;;;16.50;75.40;;;;;;5022299;28;20223;-81
2022/03/21 12:17:41;;;;;;;12.18;10.98;;;16.90;75.60;;;;;;5022574;28;20302;-77
2022/03/21 12:20:18;;;;;;;12.52;11.32;;;16.70;73.20;;;;;;5017991;28;20445;-78
2022/03/21 12:22:50;;;;;;;13.02;11.75;;;16.50;74.60;;;;;;5019283;28;20219;-79
2022/03/21 12:25:22;;;;;;;12.40;11.30;;;16.60;73.90;;;;;;5020032;28;20211;-78
2022/03/21 12:27:51;;;;;;;12.27;11.00;;;16.40;72.70;;;;;;5022674;28;20227;-79
2022/03/21 12:30:40;;;;;;;14.10;12.00;;;16.10;74.30;;;;;;5018956;28;20852;-82
2022/03/21 12:33:29;;;;;;;12.23;11.07;;;16.10;74.10;;;;;;5023455;28;20269;-77
2022/03/21 12:36:05;;;;;;;13.10;11.82;;;16.20;74.40;;;;;;5020024;28;20467;-80
2022/03/21 12:38:37;;;;;;;13.05;11.75;;;16.30;74.90;;;;;;5022558;28;20253;-77
2022/03/21 12:41:08;;;;;;;13.77;12.38;;;16.60;74.90;;;;;;5022139;28;20204;-76
2022/03/21 12:43:52;;;;;;;12.57;11.27;;;16.50;73.70;;;;;;5023486;28;20230;-77
2022/03/21 12:46:22;;;;;;;13.07;11.80;;;16.40;73.40;;;;;;5023123;28;20215;-76
2022/03/21 12:48:51;;;;;;;13.20;11.60;;;16.10;74.20;;;;;;5025017;28;20576;-77
2022/03/21 12:51:26;;;;;;;12.32;11.02;;;16.10;74.10;;;;;;5016507;28;20557;-77
2022/03/21 12:53:56;;;;;;;12.82;11.52;;;16.20;73.20;;;;;;5022826;28;20273;-76
2022/03/21 12:56:26;;;;;;;13.32;11.75;;;16.30;74.20;;;;;;5022000;28;20223;-83
2022/03/21 12:58:58;;;;;;;12.90;11.60;;;16.40;73.30;;;;;;5020596;28;20231;-77
2022/03/21 13:01:27;;;;;;;13.18;11.88;;;16.30;74.60;;;;;;5024456;28;20667;-79
2022/03/21 13:10:32;;;;;;;14.00;12.50;;;16.30;73.90;;;;;;5027033;28;20219;-80
2022/03/21 13:12:30;;;;;;;13.38;12.00;;;16.20;73.80;;;;;;5028609;28;20590;-79
2022/03/21 13:15:06;;;;;;;13.07;11.85;;;15.90;74.30;;;;;;5020456;28;20779;-75
2022/03/21 13:17:45;;;;;;;13.55;12.13;;;15.80;75.10;;;;;;5025242;28;20207;-80
2022/03/21 13:20:13;;;;;;;13.90;12.40;;;15.70;75.30;;;;;;5021222;28;20616;-76
2022/03/21 13:22:40;;;;;;;14.38;11.70;;;15.60;75.30;;;;;;5031656;28;20207;-77
2022/03/21 13:25:22;;;;;;;13.20;11.90;;;15.70;75.00;;;;;;5019462;28;20220;-76
2022/03/21 13:27:50;;;;;;;12.85;11.45;;;15.90;75.40;;;;;;5019717;28;20822;-79